Time;durP1;ratioP1;P1;durP2;ratioP2;P2;SDS_P1;SDS_P2;PMS_P1;PMS_P2;Temp;Humidity;BMP_temperature;BMP_pressure;BME280_temperature;BME280_humidity;BME280_pressure;Samples;Min_cycle;Max_cycle;Signal;HPM_P1;HPM_P2
2021/05/31 00:02:22;;;;;;;4.80;3.27;;;;;;;;;;4995368;28;20232;-79
2021/05/31 00:04:51;;;;;;;3.97;2.97;;;;;;;;;;4996848;28;20224;-79
2021/05/31 00:07:19;;;;;;;5.40;3.37;;;;;;;;;;4998698;28;20562;-79
2021/05/31 00:09:49;;;;;;;4.73;3.33;;;;;;;;;;4997831;28;20225;-79
2021/05/31 00:12:18;;;;;;;4.17;3.20;;;;;;;;;;4974129;28;20686;-78
2021/05/31 00:14:47;;;;;;;4.27;3.60;;;;;;;;;;4990495;28;20231;-80
2021/05/31 00:17:15;;;;;;;4.47;3.40;;;;;;;;;;5003840;28;20613;-79
2021/05/31 00:19:43;;;;;;;3.20;2.90;;;;;;;;;;5007326;28;20228;-79
2021/05/31 00:22:12;;;;;;;3.50;3.20;;;;;;;;;;4973351;28;20237;-79
2021/05/31 00:24:41;;;;;;;8.10;3.67;;;;;;;;;;5006240;28;20216;-79
2021/05/31 00:27:09;;;;;;;7.17;3.47;;;;;;;;;;4996073;28;20216;-79
2021/05/31 00:29:37;;;;;;;4.70;3.43;;;;;;;;;;4999035;28;20241;-80
2021/05/31 00:32:06;;;;;;;3.53;2.97;;;;;;;;;;4999435;28;20882;-79
2021/05/31 00:34:34;;;;;;;4.87;3.43;;;;;;;;;;4978513;28;20705;-80
2021/05/31 00:37:02;;;;;;;4.80;3.07;;;;;;;;;;5013867;28;20239;-79
2021/05/31 00:39:32;;;;;;;3.97;3.20;;;;;;;;;;5004917;28;20887;-80
2021/05/31 00:42:00;;;;;;;3.77;3.23;;;;;;;;;;4991261;28;20221;-78
2021/05/31 00:44:29;;;;;;;3.80;3.40;;;;;;;;;;5000629;28;20300;-80
2021/05/31 00:46:57;;;;;;;6.77;3.47;;;;;;;;;;4982135;28;21195;-80
2021/05/31 00:49:28;;;;;;;9.27;3.60;;;;;;;;;;5000081;28;20252;-79
2021/05/31 00:51:56;;;;;;;4.57;3.50;;;;;;;;;;4999659;28;20229;-80
2021/05/31 00:54:24;;;;;;;4.60;3.50;;;;;;;;;;4992870;28;20229;-80
2021/05/31 00:56:54;;;;;;;4.60;4.00;;;;;;;;;;5013776;28;20240;-81
2021/05/31 00:59:22;;;;;;;4.90;3.63;;;;;;;;;;4999137;28;20709;-82
2021/05/31 01:01:53;;;;;;;5.20;3.73;;;;;;;;;;5000021;28;20245;-79
2021/05/31 01:04:21;;;;;;;4.87;4.00;;;;;;;;;;4996547;28;20229;-85
2021/05/31 01:06:53;;;;;;;4.70;3.77;;;;;;;;;;5000647;28;20240;-80
2021/05/31 01:09:29;;;;;;;4.40;4.00;;;;;;;;;;4997904;28;20239;-80
2021/05/31 01:12:05;;;;;;;4.53;4.13;;;;;;;;;;4983102;28;20217;-80
2021/05/31 01:14:42;;;;;;;4.70;4.17;;;;;;;;;;4991462;28;20231;-80
2021/05/31 01:17:15;;;;;;;4.30;3.90;;;;;;;;;;5002361;28;20585;-80
2021/05/31 01:20:18;;;;;;;5.17;4.27;;;;;;;;;;4999563;28;20228;-81
2021/05/31 01:22:47;;;;;;;4.10;3.70;;;;;;;;;;4975857;28;20229;-80
2021/05/31 01:25:25;;;;;;;5.23;4.10;;;;;;;;;;5015515;28;20736;-80
2021/05/31 01:28:34;;;;;;;4.70;4.07;;;;;;;;;;4998491;28;20259;-80
2021/05/31 01:31:04;;;;;;;4.90;4.33;;;;;;;;;;5002101;28;20607;-79
2021/05/31 01:33:34;;;;;;;5.07;3.93;;;;;;;;;;4982191;28;20232;-79
2021/05/31 01:36:03;;;;;;;4.50;4.10;;;;;;;;;;4997191;28;20237;-79
2021/05/31 01:38:33;;;;;;;5.00;3.70;;;;;;;;;;4989542;28;20213;-79
2021/05/31 01:41:01;;;;;;;3.97;3.67;;;;;;;;;;4999378;28;20225;-81
2021/05/31 01:43:30;;;;;;;4.00;3.70;;;;;;;;;;5005976;28;20228;-78
2021/05/31 01:46:00;;;;;;;4.73;4.17;;;;;;;;;;5001543;28;20212;-78
2021/05/31 01:48:30;;;;;;;4.20;3.80;;;;;;;;;;4989516;28;20687;-79
2021/05/31 01:51:00;;;;;;;6.13;3.80;;;;;;;;;;5003413;28;20225;-82
2021/05/31 01:53:28;;;;;;;4.67;4.27;;;;;;;;;;4994965;28;20229;-78
2021/05/31 01:55:57;;;;;;;4.57;4.07;;;;;;;;;;4996441;28;20228;-79
2021/05/31 01:58:26;;;;;;;5.00;4.00;;;;;;;;;;4998403;28;20225;-79
2021/05/31 02:00:54;;;;;;;5.90;4.30;;;;;;;;;;4993846;28;20247;-79
2021/05/31 02:03:23;;;;;;;6.47;4.27;;;;;;;;;;4973650;28;20321;-78
2021/05/31 02:05:52;;;;;;;4.43;4.03;;;;;;;;;;4979479;28;20236;-80
2021/05/31 02:08:21;;;;;;;5.30;4.73;;;;;;;;;;4994357;28;20228;-81
2021/05/31 02:10:49;;;;;;;5.73;4.13;;;;;;;;;;5000638;28;20224;-79
2021/05/31 02:13:17;;;;;;;5.40;4.50;;;;;;;;;;4976845;28;20240;-80
2021/05/31 02:15:54;;;;;;;4.97;3.90;;;;;;;;;;4979350;28;20228;-80
2021/05/31 02:18:24;;;;;;;4.90;4.47;;;;;;;;;;4999069;28;20231;-79
2021/05/31 02:20:57;;;;;;;4.67;4.20;;;;;;;;;;5017981;28;20222;-80
2021/05/31 02:23:27;;;;;;;6.43;4.60;;;;;;;;;;5016343;28;20239;-84
2021/05/31 02:25:55;;;;;;;4.63;3.90;;;;;;;;;;4987779;28;20603;-79
2021/05/31 02:28:23;;;;;;;5.00;4.40;;;;;;;;;;4977005;28;20217;-80
2021/05/31 02:30:53;;;;;;;5.77;4.10;;;;;;;;;;4991969;28;20236;-79
2021/05/31 02:33:24;;;;;;;5.57;4.13;;;;;;;;;;4992520;28;20229;-79
2021/05/31 02:35:52;;;;;;;4.63;4.10;;;;;;;;;;4985886;28;20229;-79
2021/05/31 02:38:21;;;;;;;5.37;4.27;;;;;;;;;;4977093;28;20228;-79
2021/05/31 02:40:50;;;;;;;4.67;4.00;;;;;;;;;;4998922;28;20233;-81
2021/05/31 02:43:18;;;;;;;4.83;4.10;;;;;;;;;;4999753;28;20231;-79
2021/05/31 02:45:46;;;;;;;6.20;4.17;;;;;;;;;;4993103;28;20221;-81
2021/05/31 02:48:14;;;;;;;5.47;3.90;;;;;;;;;;4989057;28;20711;-79
2021/05/31 02:50:43;;;;;;;4.73;4.20;;;;;;;;;;4995990;28;20233;-79
2021/05/31 02:53:11;;;;;;;5.53;4.13;;;;;;;;;;4991317;28;20676;-80
2021/05/31 02:55:40;;;;;;;4.00;3.50;;;;;;;;;;4980605;28;20235;-80
2021/05/31 02:58:11;;;;;;;5.07;4.00;;;;;;;;;;4994290;28;20248;-81
2021/05/31 03:00:39;;;;;;;5.40;4.23;;;;;;;;;;4981791;28;20248;-79
2021/05/31 03:03:09;;;;;;;4.97;4.30;;;;;;;;;;4991897;28;20613;-81
2021/05/31 03:05:37;;;;;;;7.10;4.27;;;;;;;;;;4998414;28;20232;-78
2021/05/31 03:08:06;;;;;;;4.57;4.17;;;;;;;;;;4989353;28;20225;-82
2021/05/31 03:10:35;;;;;;;5.00;4.30;;;;;;;;;;5011528;28;20228;-78
2021/05/31 03:13:04;;;;;;;4.73;4.13;;;;;;;;;;4976267;28;20253;-79
2021/05/31 03:15:32;;;;;;;4.77;4.20;;;;;;;;;;4981084;28;20228;-78
2021/05/31 03:18:01;;;;;;;5.27;4.00;;;;;;;;;;4997913;28;20237;-83
2021/05/31 03:20:30;;;;;;;4.50;3.83;;;;;;;;;;5008394;28;20224;-80
2021/05/31 03:23:00;;;;;;;7.43;4.20;;;;;;;;;;4998367;28;20247;-80
2021/05/31 03:25:28;;;;;;;6.90;3.73;;;;;;;;;;4996169;28;20227;-79
2021/05/31 03:27:58;;;;;;;5.63;3.93;;;;;;;;;;5009930;28;20231;-79
2021/05/31 03:30:28;;;;;;;5.27;3.80;;;;;;;;;;4994114;28;21147;-80
2021/05/31 03:32:56;;;;;;;4.50;3.90;;;;;;;;;;4978733;28;20229;-78
2021/05/31 03:35:25;;;;;;;6.27;4.33;;;;;;;;;;4993869;28;20239;-81
2021/05/31 03:37:53;;;;;;;4.60;3.90;;;;;;;;;;4994455;28;20232;-80
2021/05/31 03:40:23;;;;;;;5.97;4.20;;;;;;;;;;4998276;28;20236;-81
2021/05/31 03:42:52;;;;;;;5.77;4.50;;;;;;;;;;4978397;28;20235;-79
2021/05/31 03:45:20;;;;;;;5.70;4.90;;;;;;;;;;4990640;28;20228;-79
2021/05/31 03:47:50;;;;;;;5.30;3.50;;;;;;;;;;5000961;28;20235;-82
2021/05/31 03:50:19;;;;;;;4.80;3.93;;;;;;;;;;4976007;28;20770;-79
2021/05/31 03:52:49;;;;;;;5.33;4.03;;;;;;;;;;4997277;28;20233;-79
2021/05/31 03:55:18;;;;;;;4.33;3.93;;;;;;;;;;4981905;28;20232;-80
2021/05/31 03:57:46;;;;;;;4.87;4.40;;;;;;;;;;4983963;28;20228;-80
2021/05/31 04:00:16;;;;;;;5.83;3.80;;;;;;;;;;4984896;28;20240;-79
2021/05/31 04:02:45;;;;;;;5.03;4.53;;;;;;;;;;4982170;28;20235;-81
2021/05/31 04:05:15;;;;;;;6.77;4.63;;;;;;;;;;5002238;28;20229;-81
2021/05/31 04:13:20;;;;;;;4.83;3.70;;;;;;;;;;5017076;28;20225;-79
2021/05/31 04:15:49;;;;;;;4.50;4.03;;;;;;;;;;4998978;28;20273;-80
2021/05/31 04:18:17;;;;;;;3.90;3.50;;;;;;;;;;4999951;28;20260;-82
2021/05/31 04:20:47;;;;;;;4.27;3.87;;;;;;;;;;4996901;28;20232;-78
2021/05/31 04:23:15;;;;;;;7.33;4.67;;;;;;;;;;4990179;28;20235;-78
2021/05/31 04:25:44;;;;;;;5.60;4.03;;;;;;;;;;5003222;28;20219;-78
2021/05/31 04:28:12;;;;;;;4.90;3.63;;;;;;;;;;5001591;28;20459;-80
2021/05/31 04:30:40;;;;;;;6.90;4.00;;;;;;;;;;4987845;28;20243;-80
2021/05/31 04:33:08;;;;;;;6.33;4.00;;;;;;;;;;4975129;28;20217;-76
2021/05/31 04:35:36;;;;;;;5.50;4.17;;;;;;;;;;4995783;28;20593;-77
2021/05/31 04:38:06;;;;;;;5.67;4.00;;;;;;;;;;4987740;28;20221;-77
2021/05/31 04:40:34;;;;;;;5.07;3.80;;;;;;;;;;5009268;28;20702;-77
2021/05/31 04:43:03;;;;;;;5.80;4.00;;;;;;;;;;5001657;28;20607;-78
2021/05/31 04:45:31;;;;;;;5.27;3.80;;;;;;;;;;4978469;28;20247;-78
2021/05/31 04:47:59;;;;;;;5.90;4.50;;;;;;;;;;4998688;28;20221;-78
2021/05/31 04:50:27;;;;;;;4.33;3.70;;;;;;;;;;5003352;28;20714;-78
2021/05/31 04:52:55;;;;;;;5.13;4.00;;;;;;;;;;5006954;28;20324;-77
2021/05/31 04:55:25;;;;;;;5.87;4.40;;;;;;;;;;5006557;28;20736;-76
2021/05/31 04:57:53;;;;;;;7.30;4.00;;;;;;;;;;5001010;28;20236;-77
2021/05/31 05:00:22;;;;;;;4.40;3.60;;;;;;;;;;4990557;28;20241;-78
2021/05/31 05:02:50;;;;;;;5.87;3.67;;;;;;;;;;5000088;28;20224;-77
2021/05/31 05:05:18;;;;;;;5.83;4.47;;;;;;;;;;5002465;28;20271;-77
2021/05/31 05:07:46;;;;;;;6.57;4.17;;;;;;;;;;5003224;28;20228;-78
2021/05/31 05:10:18;;;;;;;4.50;3.50;;;;;;;;;;5003964;28;20232;-78
2021/05/31 05:12:49;;;;;;;5.40;4.37;;;;;;;;;;5002362;28;21013;-78
2021/05/31 05:15:19;;;;;;;4.63;3.27;;;;;;;;;;4985436;28;20231;-81
2021/05/31 05:17:48;;;;;;;5.90;3.90;;;;;;;;;;5005792;28;20228;-79
2021/05/31 05:20:18;;;;;;;4.87;4.20;;;;;;;;;;5001506;28;20240;-79
2021/05/31 05:22:46;;;;;;;3.87;3.43;;;;;;;;;;5002569;28;20311;-80
2021/05/31 05:25:14;;;;;;;5.87;4.67;;;;;;;;;;5005703;28;20225;-79
2021/05/31 05:27:43;;;;;;;6.27;4.13;;;;;;;;;;4995275;28;20234;-77
2021/05/31 05:30:17;;;;;;;4.33;3.80;;;;;;;;;;4983370;28;20245;-78
2021/05/31 05:32:48;;;;;;;6.37;3.90;;;;;;;;;;4992338;28;20593;-79
2021/05/31 05:35:23;;;;;;;5.20;3.80;;;;;;;;;;4990779;28;20232;-77
2021/05/31 05:38:08;;;;;;;5.57;4.30;;;;;;;;;;4981529;28;20221;-77
2021/05/31 05:43:44;;;;;;;5.70;4.07;;;;;;;;;;5013449;28;20228;-82
2021/05/31 05:46:26;;;;;;;5.37;3.50;;;;;;;;;;4985633;28;20234;-78
2021/05/31 05:48:58;;;;;;;6.20;3.63;;;;;;;;;;5019935;28;20576;-79
2021/05/31 05:51:27;;;;;;;5.80;4.70;;;;;;;;;;5003061;28;20232;-77
2021/05/31 05:53:58;;;;;;;5.00;4.00;;;;;;;;;;5002499;28;20221;-77
2021/05/31 05:56:26;;;;;;;5.77;4.13;;;;;;;;;;4983539;28;20245;-81
2021/05/31 05:58:56;;;;;;;5.90;4.33;;;;;;;;;;4999090;28;20252;-78
2021/05/31 06:01:26;;;;;;;4.80;3.93;;;;;;;;;;4999714;28;20247;-78
2021/05/31 06:03:55;;;;;;;5.30;4.18;;;;;;;;;;4978384;28;20822;-79
2021/05/31 06:06:24;;;;;;;8.23;3.20;;;;;;;;;;5002940;28;20225;-80
2021/05/31 06:08:54;;;;;;;6.47;3.57;;;;;;;;;;4996691;28;20741;-82
2021/05/31 06:11:25;;;;;;;6.57;3.80;;;;;;;;;;4996041;28;20236;-80
2021/05/31 06:13:53;;;;;;;10.43;4.20;;;;;;;;;;4987583;28;20228;-84
2021/05/31 06:16:21;;;;;;;4.83;3.73;;;;;;;;;;4996347;28;20233;-80
2021/05/31 06:18:51;;;;;;;4.70;3.07;;;;;;;;;;4996576;28;20227;-79
2021/05/31 06:21:20;;;;;;;6.87;3.57;;;;;;;;;;4986841;28;20224;-84
2021/05/31 06:23:48;;;;;;;4.73;3.60;;;;;;;;;;4988293;28;20224;-83
2021/05/31 06:26:16;;;;;;;6.03;3.30;;;;;;;;;;5006665;28;20240;-80
2021/05/31 06:28:45;;;;;;;5.23;3.00;;;;;;;;;;4984362;28;20225;-82
2021/05/31 06:31:15;;;;;;;8.47;3.60;;;;;;;;;;4987945;28;20236;-80
2021/05/31 06:33:46;;;;;;;9.73;3.57;;;;;;;;;;4985776;28;20223;-79
2021/05/31 06:36:18;;;;;;;4.17;3.40;;;;;;;;;;4986306;28;20233;-80
2021/05/31 06:39:01;;;;;;;3.63;3.30;;;;;;;;;;4982480;28;20212;-78
2021/05/31 06:41:30;;;;;;;4.77;3.90;;;;;;;;;;4985159;28;20225;-79
2021/05/31 06:43:58;;;;;;;3.73;3.23;;;;;;;;;;5010439;28;20244;-81
2021/05/31 06:46:27;;;;;;;5.10;3.43;;;;;;;;;;5025834;28;20237;-80
2021/05/31 06:48:56;;;;;;;5.43;3.43;;;;;;;;;;5017855;28;20231;-79
2021/05/31 06:51:25;;;;;;;6.63;3.40;;;;;;;;;;5010221;28;20223;-84
2021/05/31 06:53:53;;;;;;;3.93;3.53;;;;;;;;;;5029901;28;20219;-81
2021/05/31 06:56:23;;;;;;;5.20;3.57;;;;;;;;;;4993721;28;20224;-80
2021/05/31 06:58:52;;;;;;;5.33;3.57;;;;;;;;;;4990464;28;20229;-80
2021/05/31 07:01:20;;;;;;;6.67;3.77;;;;;;;;;;5003581;28;20224;-81
2021/05/31 07:03:49;;;;;;;3.60;3.20;;;;;;;;;;4998939;28;20236;-81
2021/05/31 07:06:17;;;;;;;5.13;3.30;;;;;;;;;;5003514;28;20238;-82
2021/05/31 07:08:46;;;;;;;5.03;3.40;;;;;;;;;;5003032;28;20236;-81
2021/05/31 07:11:17;;;;;;;5.43;3.27;;;;;;;;;;5005780;28;20229;-80
2021/05/31 07:13:46;;;;;;;9.40;3.87;;;;;;;;;;4986523;28;20216;-80
2021/05/31 07:16:15;;;;;;;3.90;3.33;;;;;;;;;;4997918;28;20255;-80
2021/05/31 07:18:43;;;;;;;3.83;3.40;;;;;;;;;;4992362;28;20220;-80
2021/05/31 07:21:12;;;;;;;6.90;3.53;;;;;;;;;;4983619;28;20980;-80
2021/05/31 07:23:40;;;;;;;5.63;3.50;;;;;;;;;;4985816;28;20231;-80
2021/05/31 07:26:10;;;;;;;4.47;3.67;;;;;;;;;;4993075;28;20233;-80
2021/05/31 07:28:38;;;;;;;4.10;3.57;;;;;;;;;;4998320;28;20687;-81
2021/05/31 07:31:06;;;;;;;6.73;4.13;;;;;;;;;;4999610;28;20224;-81
2021/05/31 07:33:35;;;;;;;5.93;3.60;;;;;;;;;;4974215;28;20232;-80
2021/05/31 07:36:03;;;;;;;4.17;3.70;;;;;;;;;;4973960;28;20234;-80
2021/05/31 07:38:31;;;;;;;5.60;3.70;;;;;;;;;;5000104;28;20220;-82
2021/05/31 07:40:59;;;;;;;6.07;3.70;;;;;;;;;;4980935;28;20229;-78
2021/05/31 07:43:30;;;;;;;5.60;3.60;;;;;;;;;;4985606;28;20226;-78
2021/05/31 07:45:59;;;;;;;5.60;4.20;;;;;;;;;;4981269;28;20227;-78
2021/05/31 07:48:28;;;;;;;4.20;3.77;;;;;;;;;;5016613;28;20233;-79
2021/05/31 07:51:14;;;;;;;5.00;3.90;;;;;;;;;;4984148;28;20246;-78
2021/05/31 07:53:45;;;;;;;5.10;3.80;;;;;;;;;;4972701;28;20225;-78
2021/05/31 07:56:14;;;;;;;6.23;3.73;;;;;;;;;;4978727;28;20236;-79
2021/05/31 07:58:45;;;;;;;7.63;4.33;;;;;;;;;;4998987;28;20598;-78
2021/05/31 08:01:13;;;;;;;7.57;4.00;;;;;;;;;;4976589;28;20225;-78
2021/05/31 08:03:42;;;;;;;4.63;3.93;;;;;;;;;;4981325;28;20232;-78
2021/05/31 08:06:10;;;;;;;4.43;3.83;;;;;;;;;;5006671;28;20243;-78
2021/05/31 08:08:39;;;;;;;4.03;3.67;;;;;;;;;;5000157;28;20239;-78
2021/05/31 08:11:08;;;;;;;5.13;4.20;;;;;;;;;;4996799;28;20605;-78
2021/05/31 08:13:38;;;;;;;4.70;3.80;;;;;;;;;;4984007;28;20220;-78
2021/05/31 08:16:11;;;;;;;5.23;3.80;;;;;;;;;;4990634;28;20526;-80
2021/05/31 08:18:43;;;;;;;4.73;3.73;;;;;;;;;;4975575;28;20229;-79
2021/05/31 08:21:13;;;;;;;5.10;3.87;;;;;;;;;;4993869;28;20236;-80
2021/05/31 08:23:43;;;;;;;5.23;4.03;;;;;;;;;;4977717;28;20229;-78
2021/05/31 08:26:12;;;;;;;3.73;3.40;;;;;;;;;;4976563;28;20224;-78
2021/05/31 08:28:42;;;;;;;3.80;3.50;;;;;;;;;;4982965;28;20232;-78
2021/05/31 08:31:12;;;;;;;6.33;3.93;;;;;;;;;;4991300;28;20599;-78
2021/05/31 08:33:40;;;;;;;6.53;4.53;;;;;;;;;;4996057;28;20236;-79
2021/05/31 08:36:09;;;;;;;4.83;3.60;;;;;;;;;;4989943;28;20287;-79
2021/05/31 08:38:37;;;;;;;4.90;3.57;;;;;;;;;;4996493;28;20216;-78
2021/05/31 08:41:05;;;;;;;5.70;4.00;;;;;;;;;;4989260;28;20226;-79
2021/05/31 08:43:33;;;;;;;4.57;3.67;;;;;;;;;;4978313;28;20225;-78
2021/05/31 08:46:02;;;;;;;4.17;3.50;;;;;;;;;;4976449;28;20233;-79
2021/05/31 08:48:32;;;;;;;5.23;3.70;;;;;;;;;;5008386;28;20221;-79
2021/05/31 08:51:00;;;;;;;5.70;4.33;;;;;;;;;;4974975;28;20236;-78
2021/05/31 08:53:28;;;;;;;4.90;3.67;;;;;;;;;;5008491;28;20937;-78
2021/05/31 08:55:56;;;;;;;5.73;3.77;;;;;;;;;;4999067;28;20244;-78
2021/05/31 08:58:24;;;;;;;5.10;3.83;;;;;;;;;;5001195;28;20229;-78
2021/05/31 09:00:52;;;;;;;3.93;3.53;;;;;;;;;;4996696;28;20232;-79
2021/05/31 09:03:20;;;;;;;4.57;3.97;;;;;;;;;;4992291;28;20232;-79
2021/05/31 09:05:51;;;;;;;5.17;4.07;;;;;;;;;;4998298;28;20585;-78
2021/05/31 09:08:20;;;;;;;6.20;4.17;;;;;;;;;;4990728;28;20233;-78
2021/05/31 09:10:52;;;;;;;3.70;3.40;;;;;;;;;;4978924;28;20236;-78
2021/05/31 09:13:28;;;;;;;15.03;4.37;;;;;;;;;;5004298;28;20619;-79
2021/05/31 09:16:04;;;;;;;5.23;3.77;;;;;;;;;;5003248;28;20228;-78
2021/05/31 09:18:33;;;;;;;4.50;3.80;;;;;;;;;;4984866;28;20231;-78
2021/05/31 09:21:12;;;;;;;4.37;3.60;;;;;;;;;;4998604;28;20224;-80
2021/05/31 09:23:40;;;;;;;5.60;3.80;;;;;;;;;;5003769;28;20721;-78
2021/05/31 09:26:08;;;;;;;4.63;3.33;;;;;;;;;;5016251;28;20217;-79
2021/05/31 09:28:36;;;;;;;6.97;4.00;;;;;;;;;;5005972;28;20228;-79
2021/05/31 09:31:16;;;;;;;5.20;3.47;;;;;;;;;;5003036;28;20239;-78
2021/05/31 09:33:44;;;;;;;5.13;3.20;;;;;;;;;;5005961;28;20239;-78
2021/05/31 09:36:14;;;;;;;6.73;3.50;;;;;;;;;;5004079;28;20701;-78
2021/05/31 09:38:48;;;;;;;4.83;3.43;;;;;;;;;;4988478;28;20216;-79
2021/05/31 09:41:24;;;;;;;4.20;3.13;;;;;;;;;;4989036;28;20709;-79
2021/05/31 09:43:55;;;;;;;4.50;3.20;;;;;;;;;;5007186;28;20222;-81
2021/05/31 09:46:41;;;;;;;3.90;3.23;;;;;;;;;;4986436;28;20368;-78
2021/05/31 09:49:15;;;;;;;3.10;2.83;;;;;;;;;;4997054;28;20236;-79
2021/05/31 09:52:00;;;;;;;3.43;2.80;;;;;;;;;;5003042;28;20224;-78
2021/05/31 09:54:36;;;;;;;3.77;3.47;;;;;;;;;;4992921;28;20245;-79
2021/05/31 09:57:19;;;;;;;3.90;3.03;;;;;;;;;;4980728;28;20713;-79
2021/05/31 09:59:53;;;;;;;4.43;3.20;;;;;;;;;;4972963;28;20604;-79
2021/05/31 10:02:33;;;;;;;4.93;3.87;;;;;;;;;;4983943;28;20225;-78
2021/05/31 10:05:08;;;;;;;3.63;3.33;;;;;;;;;;4988573;28;20228;-79
2021/05/31 10:07:44;;;;;;;4.70;3.30;;;;;;;;;;5011759;28;20608;-78
2021/05/31 10:10:13;;;;;;;4.47;3.23;;;;;;;;;;4995219;28;20232;-80
2021/05/31 10:12:58;;;;;;;2.90;2.60;;;;;;;;;;4972572;28;20229;-78
2021/05/31 10:15:27;;;;;;;4.73;3.03;;;;;;;;;;5000027;28;20225;-78
2021/05/31 10:17:58;;;;;;;3.73;3.07;;;;;;;;;;5009485;28;20231;-77
2021/05/31 10:20:28;;;;;;;5.33;3.47;;;;;;;;;;4995961;28;20243;-78
2021/05/31 10:22:58;;;;;;;3.67;3.33;;;;;;;;;;5007045;28;20224;-79
2021/05/31 10:25:28;;;;;;;3.55;3.03;;;;;;;;;;5005775;28;20232;-78
2021/05/31 10:28:00;;;;;;;7.53;3.60;;;;;;;;;;5023907;28;20229;-77
2021/05/31 10:30:28;;;;;;;4.45;3.42;;;;;;;;;;4995320;28;20598;-78
2021/05/31 10:32:57;;;;;;;4.00;3.35;;;;;;;;;;5011614;28;20229;-79
2021/05/31 10:35:28;;;;;;;3.88;3.30;;;;;;;;;;5019731;28;20224;-78
2021/05/31 10:37:59;;;;;;;3.67;3.30;;;;;;;;;;5000566;28;20244;-79
2021/05/31 10:40:32;;;;;;;3.67;3.38;;;;;;;;;;5002307;28;20239;-79
2021/05/31 10:43:06;;;;;;;3.10;2.78;;;;;;;;;;5006084;28;20225;-79
2021/05/31 10:45:34;;;;;;;4.25;2.90;;;;;;;;;;4982901;28;20225;-78
2021/05/31 10:48:14;;;;;;;4.00;2.88;;;;;;;;;;5006703;28;20220;-78
2021/05/31 10:50:44;;;;;;;3.70;2.40;;;;;;;;;;4983496;28;20248;-78
2021/05/31 10:53:30;;;;;;;3.30;2.90;;;;;;;;;;4983286;28;20232;-78
2021/05/31 10:56:00;;;;;;;3.33;2.92;;;;;;;;;;4996190;28;20632;-78
2021/05/31 10:58:32;;;;;;;3.78;3.05;;;;;;;;;;4983061;28;20232;-78
2021/05/31 11:01:02;;;;;;;5.68;3.05;;;;;;;;;;5000159;28;20228;-78
2021/05/31 11:03:31;;;;;;;4.00;2.90;;;;;;;;;;4987551;28;20236;-78
2021/05/31 11:05:59;;;;;;;3.70;2.80;;;;;;;;;;5007579;28;20231;-79
2021/05/31 11:08:30;;;;;;;3.03;2.67;;;;;;;;;;5006535;28;20221;-79
2021/05/31 11:11:00;;;;;;;3.42;2.90;;;;;;;;;;5001394;28;20803;-79
2021/05/31 11:13:29;;;;;;;3.13;2.83;;;;;;;;;;4986523;28;20228;-79
2021/05/31 11:16:06;;;;;;;2.97;2.55;;;;;;;;;;5005130;28;20235;-79
2021/05/31 11:18:42;;;;;;;3.53;2.65;;;;;;;;;;4985795;28;20698;-79
2021/05/31 11:21:26;;;;;;;3.65;3.15;;;;;;;;;;5007967;28;20227;-80
2021/05/31 11:24:01;;;;;;;2.60;2.40;;;;;;;;;;5027728;28;20228;-79
2021/05/31 11:26:31;;;;;;;2.90;2.67;;;;;;;;;;5016611;28;20231;-79
2021/05/31 11:29:01;;;;;;;2.65;2.40;;;;;;;;;;5037294;28;20246;-79
2021/05/31 11:31:29;;;;;;;3.58;2.97;;;;;;;;;;5016203;28;20238;-79
2021/05/31 11:33:58;;;;;;;3.25;2.50;;;;;;;;;;4999587;28;20228;-79
2021/05/31 11:36:31;;;;;;;3.13;2.58;;;;;;;;;;4998761;28;20255;-79
2021/05/31 11:39:01;;;;;;;3.03;2.40;;;;;;;;;;4989542;28;20233;-80
2021/05/31 11:41:38;;;;;;;2.70;2.50;;;;;;;;;;4993020;28;20244;-79
2021/05/31 11:44:07;;;;;;;2.70;2.50;;;;;;;;;;4982266;28;20264;-80
2021/05/31 11:46:47;;;;;;;2.95;2.60;;;;;;;;;;4981988;28;20221;-79
2021/05/31 11:49:19;;;;;;;3.00;2.70;;;;;;;;;;4996154;28;20563;-79
2021/05/31 11:51:58;;;;;;;3.13;2.70;;;;;;;;;;5003175;28;20308;-79
2021/05/31 11:54:30;;;;;;;2.58;2.33;;;;;;;;;;4985456;28;20236;-79
2021/05/31 11:57:00;;;;;;;3.83;2.45;;;;;;;;;;5005287;28;20224;-81
2021/05/31 11:59:32;;;;;;;3.03;2.38;;;;;;;;;;4984729;28;20225;-79
2021/05/31 12:02:00;;;;;;;2.75;2.50;;;;;;;;;;5003428;28;20225;-80
2021/05/31 12:04:29;;;;;;;2.70;2.38;;;;;;;;;;5007149;28;20228;-80
2021/05/31 12:06:58;;;;;;;4.80;2.88;;;;;;;;;;4997171;28;20230;-79
2021/05/31 12:09:28;;;;;;;2.50;2.30;;;;;;;;;;5008035;28;20232;-79
2021/05/31 12:11:57;;;;;;;3.22;2.92;;;;;;;;;;5005681;28;20228;-79
2021/05/31 12:14:26;;;;;;;2.70;2.50;;;;;;;;;;4991264;28;20255;-80
2021/05/31 12:16:55;;;;;;;2.72;2.53;;;;;;;;;;5004873;28;20224;-80
2021/05/31 12:19:25;;;;;;;3.58;2.85;;;;;;;;;;5009264;28;20710;-80
2021/05/31 12:21:57;;;;;;;4.18;2.80;;;;;;;;;;4987152;28;20623;-81
2021/05/31 12:24:29;;;;;;;5.20;2.42;;;;;;;;;;4988120;28;20706;-80
2021/05/31 12:26:58;;;;;;;3.45;2.47;;;;;;;;;;5002434;28;20232;-80
2021/05/31 12:29:33;;;;;;;2.75;2.45;;;;;;;;;;4996620;28;20241;-80
2021/05/31 12:32:04;;;;;;;3.95;2.58;;;;;;;;;;4995887;28;20235;-80
2021/05/31 12:34:33;;;;;;;7.10;2.67;;;;;;;;;;4982906;28;20224;-80
2021/05/31 12:37:03;;;;;;;3.10;2.80;;;;;;;;;;5000250;28;20398;-80
2021/05/31 12:39:36;;;;;;;3.40;2.90;;;;;;;;;;5005840;28;20233;-81
2021/05/31 12:42:08;;;;;;;2.80;2.60;;;;;;;;;;4996838;28;20239;-81
2021/05/31 12:44:36;;;;;;;3.25;2.53;;;;;;;;;;4999909;28;20221;-81
2021/05/31 12:47:08;;;;;;;2.92;2.72;;;;;;;;;;4987355;28;21163;-81
2021/05/31 12:49:43;;;;;;;3.38;2.70;;;;;;;;;;5001659;28;20736;-81
2021/05/31 12:52:11;;;;;;;4.20;2.92;;;;;;;;;;4987045;28;20221;-81
2021/05/31 12:54:41;;;;;;;3.20;2.90;;;;;;;;;;4985266;28;20224;-81
2021/05/31 12:57:11;;;;;;;2.50;2.30;;;;;;;;;;5007178;28;20228;-81
2021/05/31 12:59:46;;;;;;;3.13;2.80;;;;;;;;;;5019795;28;20213;-81
2021/05/31 13:02:17;;;;;;;2.90;2.60;;;;;;;;;;4997794;28;20235;-82
2021/05/31 13:04:47;;;;;;;3.55;2.65;;;;;;;;;;5006578;28;20221;-80
2021/05/31 13:07:17;;;;;;;2.75;2.50;;;;;;;;;;4984631;28;20235;-81
2021/05/31 13:09:46;;;;;;;3.47;2.45;;;;;;;;;;5014652;28;20243;-81
2021/05/31 13:12:15;;;;;;;2.90;2.55;;;;;;;;;;4996052;28;20233;-80
2021/05/31 13:14:46;;;;;;;2.72;2.53;;;;;;;;;;5013652;28;20229;-81
2021/05/31 13:17:14;;;;;;;2.50;2.30;;;;;;;;;;4981647;28;20233;-81
2021/05/31 13:19:42;;;;;;;3.63;2.60;;;;;;;;;;4994079;28;20240;-81
2021/05/31 13:22:13;;;;;;;3.00;2.25;;;;;;;;;;4990430;28;20224;-81
2021/05/31 13:24:43;;;;;;;2.60;2.40;;;;;;;;;;5022508;28;20221;-81
2021/05/31 13:27:18;;;;;;;3.60;2.58;;;;;;;;;;5021141;28;20236;-81
2021/05/31 13:29:57;;;;;;;2.90;2.60;;;;;;;;;;4999258;28;20212;-81
2021/05/31 13:32:26;;;;;;;2.88;2.45;;;;;;;;;;5035304;28;22313;-81
2021/05/31 13:35:03;;;;;;;3.47;2.60;;;;;;;;;;5011470;28;20204;-81
2021/05/31 13:37:32;;;;;;;3.25;2.40;;;;;;;;;;5037817;28;20234;-80
2021/05/31 13:40:04;;;;;;;3.05;2.38;;;;;;;;;;5017059;28;20224;-81
2021/05/31 13:42:36;;;;;;;5.30;2.97;;;;;;;;;;4999084;28;20228;-81
2021/05/31 13:45:06;;;;;;;2.80;2.08;;;;;;;;;;4998963;28;20220;-81
2021/05/31 13:47:34;;;;;;;2.53;2.33;;;;;;;;;;4999398;28;20221;-81
2021/05/31 13:50:04;;;;;;;2.60;2.40;;;;;;;;;;5000434;28;20805;-80
2021/05/31 13:52:32;;;;;;;2.33;2.13;;;;;;;;;;4983914;28;20221;-80
2021/05/31 13:55:02;;;;;;;6.68;2.53;;;;;;;;;;5004962;28;20221;-80
2021/05/31 13:57:30;;;;;;;2.60;2.40;;;;;;;;;;4986018;28;20227;-80
2021/05/31 14:00:00;;;;;;;3.50;2.20;;;;;;;;;;5005371;28;20236;-80
2021/05/31 14:02:28;;;;;;;4.13;2.42;;;;;;;;;;4986711;28;20236;-80
2021/05/31 14:04:56;;;;;;;2.95;2.30;;;;;;;;;;4986513;28;20229;-80
2021/05/31 14:07:24;;;;;;;3.00;2.08;;;;;;;;;;4988898;28;20324;-80
2021/05/31 14:09:52;;;;;;;2.80;2.20;;;;;;;;;;4988913;28;20226;-80
2021/05/31 14:12:21;;;;;;;2.45;2.25;;;;;;;;;;4990458;28;20232;-79
2021/05/31 14:14:49;;;;;;;2.67;2.47;;;;;;;;;;4989474;28;20876;-79
2021/05/31 14:17:18;;;;;;;2.75;2.53;;;;;;;;;;5010254;28;20225;-79
2021/05/31 14:19:47;;;;;;;2.78;2.58;;;;;;;;;;4984710;28;20237;-79
2021/05/31 14:22:15;;;;;;;3.40;2.42;;;;;;;;;;5016477;28;20233;-79
2021/05/31 14:24:44;;;;;;;3.63;2.47;;;;;;;;;;5010035;28;20713;-79
2021/05/31 14:27:13;;;;;;;2.70;2.50;;;;;;;;;;4991686;28;20232;-80
2021/05/31 14:29:41;;;;;;;2.50;2.28;;;;;;;;;;5007736;28;20243;-80
2021/05/31 14:32:10;;;;;;;3.97;2.45;;;;;;;;;;5007180;28;20225;-80
2021/05/31 14:34:40;;;;;;;2.88;2.60;;;;;;;;;;5000605;28;20220;-80
2021/05/31 14:37:09;;;;;;;2.35;2.15;;;;;;;;;;4989394;28;20225;-80
2021/05/31 14:39:39;;;;;;;3.42;2.40;;;;;;;;;;4994138;28;20221;-81
2021/05/31 14:42:07;;;;;;;2.50;2.25;;;;;;;;;;5004981;28;20225;-80
2021/05/31 14:44:35;;;;;;;2.80;2.20;;;;;;;;;;5008062;28;20232;-81
2021/05/31 14:47:03;;;;;;;4.53;2.35;;;;;;;;;;4998450;28;20232;-80
2021/05/31 14:49:32;;;;;;;2.90;2.65;;;;;;;;;;5002872;28;20228;-80
2021/05/31 14:52:01;;;;;;;4.07;2.70;;;;;;;;;;5009546;28;20267;-80
2021/05/31 14:54:30;;;;;;;2.95;2.42;;;;;;;;;;5008755;28;20231;-80
2021/05/31 14:56:59;;;;;;;3.25;2.47;;;;;;;;;;4992839;28;20224;-79
2021/05/31 14:59:29;;;;;;;2.55;2.20;;;;;;;;;;5009044;28;20274;-80
2021/05/31 15:01:57;;;;;;;2.67;2.20;;;;;;;;;;5013675;28;20231;-80
2021/05/31 15:04:25;;;;;;;2.65;2.22;;;;;;;;;;5005337;28;21184;-80
2021/05/31 15:06:54;;;;;;;3.65;2.35;;;;;;;;;;5005233;28;20228;-80
2021/05/31 15:09:23;;;;;;;3.38;2.35;;;;;;;;;;5011986;28;20244;-80
2021/05/31 15:11:51;;;;;;;2.45;2.25;;;;;;;;;;4992015;28;20236;-81